Time;durP1;ratioP1;P1;durP2;ratioP2;P2;SDS_P1;SDS_P2;PMS_P1;PMS_P2;Temp;Humidity;BMP_temperature;BMP_pressure;BME280_temperature;BME280_humidity;BME280_pressure;Samples;Min_cycle;Max_cycle;Signal;HPM_P1;HPM_P2
2021/04/14 00:09:52;;;;;;;7.05;2.75;;;3.00;99.90;;;;;;6753411;88;20202;-79
2021/04/14 00:19:53;;;;;;;7.72;3.03;;;3.00;99.90;;;;;;6749017;88;20192;-77
2021/04/14 00:29:53;;;;;;;6.97;2.65;;;2.80;99.90;;;;;;6753594;88;20961;-79
2021/04/14 00:39:54;;;;;;;5.55;2.78;;;2.80;99.90;;;;;;6754145;88;20195;-78
2021/04/14 00:49:54;;;;;;;8.23;2.37;;;2.60;99.90;;;;;;6753182;88;20202;-78
2021/04/14 00:59:55;;;;;;;3.90;2.10;;;2.60;99.90;;;;;;6752270;88;20192;-78
2021/04/14 01:09:55;;;;;;;4.32;2.40;;;2.60;99.90;;;;;;6752453;88;20192;-80
2021/04/14 01:19:56;;;;;;;5.43;2.42;;;2.50;99.90;;;;;;6753019;88;20196;-79
2021/04/14 01:29:56;;;;;;;7.78;2.60;;;2.40;99.90;;;;;;6752338;88;20195;-78
2021/04/14 01:39:57;;;;;;;6.78;2.45;;;2.40;99.90;;;;;;6753104;88;20248;-78
2021/04/14 01:49:58;;;;;;;4.35;2.28;;;2.20;99.90;;;;;;6748706;88;20237;-77
2021/04/14 01:59:58;;;;;;;7.15;2.30;;;2.00;99.90;;;;;;6753599;88;20245;-79
2021/04/14 02:09:59;;;;;;;7.18;2.42;;;1.80;99.90;;;;;;6760178;88;20172;-78
2021/04/14 02:19:59;;;;;;;7.10;2.60;;;1.70;99.90;;;;;;6759885;88;20200;-79
2021/04/14 02:30:01;;;;;;;9.65;4.35;;;1.60;99.90;;;;;;6761311;88;20215;-78
2021/04/14 02:40:07;;;;;;;6.65;2.70;;;1.50;99.90;;;;;;6767037;88;20184;-77
2021/04/14 02:50:09;;;;;;;7.13;3.30;;;1.50;99.90;;;;;;6759581;88;20208;-77
2021/04/14 03:00:11;;;;;;;7.37;2.80;;;1.30;99.90;;;;;;6757256;88;20180;-78
2021/04/14 03:10:12;;;;;;;8.25;2.97;;;1.30;99.90;;;;;;6758048;88;20697;-77
2021/04/14 03:20:13;;;;;;;5.87;2.30;;;1.10;99.90;;;;;;6758719;88;20180;-77
2021/04/14 03:30:15;;;;;;;4.60;2.40;;;1.00;99.90;;;;;;6757400;88;20653;-77
2021/04/14 03:40:16;;;;;;;4.95;2.08;;;0.90;99.90;;;;;;6756146;88;20207;-78
2021/04/14 03:50:18;;;;;;;5.97;2.37;;;0.70;99.90;;;;;;6750540;88;20257;-78
2021/04/14 04:00:19;;;;;;;7.37;2.47;;;0.60;99.90;;;;;;6755013;88;20266;-78
2021/04/14 04:10:19;;;;;;;4.60;2.47;;;0.50;99.90;;;;;;6755159;88;20196;-79
2021/04/14 04:20:20;;;;;;;7.35;2.47;;;0.60;99.90;;;;;;6755470;88;20944;-79
2021/04/14 04:30:21;;;;;;;8.63;3.60;;;0.30;99.90;;;;;;6755550;88;20234;-79
2021/04/14 04:40:22;;;;;;;5.97;2.97;;;0.40;99.90;;;;;;6754077;88;20957;-80
2021/04/14 04:50:27;;;;;;;8.95;3.17;;;0.10;99.90;;;;;;6753622;88;20212;-79
2021/04/14 05:00:28;;;;;;;4.75;2.75;;;0.10;99.90;;;;;;6753607;88;20208;-80
2021/04/14 05:10:30;;;;;;;5.80;3.08;;;0.10;99.90;;;;;;6754842;88;20793;-79
2021/04/14 05:20:31;;;;;;;7.43;3.45;;;0.20;99.90;;;;;;6753566;88;20494;-81
2021/04/14 05:30:32;;;;;;;7.30;3.28;;;0.30;99.90;;;;;;6765499;88;20196;-78
2021/04/14 05:40:33;;;;;;;7.37;3.47;;;0.30;99.90;;;;;;6771193;88;20694;-78
2021/04/14 05:50:34;;;;;;;8.40;3.67;;;0.50;99.90;;;;;;6757121;88;20622;-77
2021/04/14 06:00:34;;;;;;;10.93;3.83;;;0.90;99.90;;;;;;6761340;88;20199;-77
2021/04/14 06:10:35;;;;;;;9.40;3.78;;;1.40;99.90;;;;;;6760921;88;20808;-77
2021/04/14 06:20:37;;;;;;;6.95;3.72;;;1.80;99.90;;;;;;6746856;88;20251;-80
2021/04/14 06:30:39;;;;;;;5.97;3.20;;;2.30;99.90;;;;;;6741225;88;21140;-78
2021/04/14 06:50:49;;;;;;;8.27;3.78;;;2.80;99.90;;;;;;6759941;88;21065;-77
2021/04/14 07:00:55;;;;;;;8.00;3.80;;;3.60;99.90;;;;;;6758079;88;20192;-77
2021/04/14 07:11:01;;;;;;;11.30;4.10;;;4.00;99.90;;;;;;6762809;88;20214;-76
2021/04/14 07:21:19;;;;;;;9.02;3.62;;;4.60;99.90;;;;;;6760953;88;20586;-77
2021/04/14 07:31:48;;;;;;;7.53;3.60;;;5.20;99.90;;;;;;6762400;88;20193;-78
2021/04/14 07:42:20;;;;;;;10.63;4.07;;;5.70;99.90;;;;;;6762277;88;20191;-77
2021/04/14 07:52:31;;;;;;;9.80;3.90;;;7.00;99.90;;;;;;6767203;88;20534;-78
2021/04/14 08:02:33;;;;;;;6.28;3.53;;;7.60;99.90;;;;;;6753954;88;20176;-78
2021/04/14 08:12:55;;;;;;;6.30;3.30;;;8.20;99.90;;;;;;6740827;88;20192;-78
2021/04/14 08:23:19;;;;;;;9.43;3.22;;;9.40;99.90;;;;;;6754349;87;20269;-79
2021/04/14 08:33:20;;;;;;;4.60;2.20;;;9.90;99.90;;;;;;6752937;88;20196;-78
2021/04/14 08:43:32;;;;;;;3.17;1.30;;;10.20;99.40;;;;;;6756051;88;20185;-77
2021/04/14 08:53:36;;;;;;;8.88;2.60;;;11.10;93.90;;;;;;6758712;88;20742;-78
2021/04/14 09:03:41;;;;;;;5.90;2.90;;;10.80;94.90;;;;;;6751947;88;20204;-78
2021/04/14 09:13:49;;;;;;;4.97;2.93;;;11.90;92.40;;;;;;6750686;88;20209;-78
2021/04/14 09:24:06;;;;;;;7.35;3.47;;;12.80;90.20;;;;;;6753577;88;20238;-78
2021/04/14 09:34:30;;;;;;;6.40;3.85;;;12.60;84.90;;;;;;6750418;88;20928;-80
2021/04/14 09:44:36;;;;;;;5.90;4.20;;;12.00;85.20;;;;;;6746214;88;20207;-78
2021/04/14 09:54:36;;;;;;;8.07;4.30;;;12.70;81.70;;;;;;6740234;88;20202;-76
2021/04/14 10:04:38;;;;;;;10.82;4.50;;;12.90;79.80;;;;;;6737580;88;20212;-77
2021/04/14 10:14:48;;;;;;;13.98;6.45;;;11.40;84.10;;;;;;6756451;88;20198;-76
2021/04/14 10:24:57;;;;;;;10.63;7.12;;;8.50;95.80;;;;;;6751030;88;20185;-77
2021/04/14 10:35:11;;;;;;;13.15;7.90;;;7.20;99.90;;;;;;6765230;88;20181;-74
2021/04/14 10:45:15;;;;;;;16.17;9.68;;;6.90;99.90;;;;;;6775208;87;20223;-79
2021/04/14 10:55:20;;;;;;;9.88;6.68;;;6.90;99.90;;;;;;6756563;88;20652;-75
2021/04/14 11:05:23;;;;;;;12.50;6.85;;;7.90;99.90;;;;;;6755495;88;20214;-77
2021/04/14 11:15:28;;;;;;;10.60;6.60;;;10.00;99.90;;;;;;6762628;88;20192;-78
2021/04/14 11:25:31;;;;;;;12.35;7.10;;;10.50;99.90;;;;;;6759712;88;20214;-77
2021/04/14 11:35:37;;;;;;;12.63;7.22;;;11.80;97.70;;;;;;6768662;88;20202;-77
2021/04/14 11:45:40;;;;;;;9.73;6.97;;;11.60;97.30;;;;;;6753729;88;20301;-77
2021/04/14 11:55:40;;;;;;;11.98;6.43;;;11.00;95.90;;;;;;6737579;88;20275;-77
2021/04/14 12:05:41;;;;;;;10.52;5.87;;;11.10;94.40;;;;;;6737143;88;20717;-76
2021/04/14 12:15:42;;;;;;;10.63;6.10;;;11.60;91.10;;;;;;6737014;88;20192;-77
2021/04/14 12:25:42;;;;;;;9.43;5.43;;;12.90;83.50;;;;;;6736843;88;20204;-77
2021/04/14 12:35:43;;;;;;;8.25;5.40;;;14.10;76.30;;;;;;6737591;88;20200;-77
2021/04/14 12:45:50;;;;;;;8.13;4.85;;;15.20;70.70;;;;;;6738165;88;20192;-77
2021/04/14 12:55:51;;;;;;;8.32;5.07;;;15.50;66.80;;;;;;6738253;88;20188;-78
2021/04/14 13:05:59;;;;;;;9.77;4.70;;;14.70;67.30;;;;;;6745870;88;20180;-77
2021/04/14 13:16:09;;;;;;;13.25;4.75;;;12.80;72.40;;;;;;6742129;88;20250;-76
2021/04/14 13:26:32;;;;;;;8.38;4.30;;;11.10;81.50;;;;;;6748024;88;20181;-78
2021/04/14 13:36:36;;;;;;;7.37;4.30;;;10.90;82.90;;;;;;6747599;88;20227;-76
2021/04/14 13:47:10;;;;;;;7.35;5.03;;;10.70;85.30;;;;;;6740054;88;20176;-77
2021/04/14 13:57:26;;;;;;;8.38;5.30;;;12.40;80.90;;;;;;6744013;88;20797;-77
2021/04/14 14:08:05;;;;;;;7.85;5.68;;;14.50;73.50;;;;;;6754728;88;20188;-77
2021/04/14 14:18:12;;;;;;;7.97;5.18;;;14.20;74.20;;;;;;6751363;88;20258;-78
2021/04/14 14:28:12;;;;;;;9.38;4.30;;;15.40;69.90;;;;;;6748696;88;20196;-82
2021/04/14 14:38:21;;;;;;;5.00;3.45;;;13.00;78.60;;;;;;6766111;87;20244;-78
2021/04/14 14:48:25;;;;;;;6.55;4.07;;;10.50;90.30;;;;;;6767892;88;20157;-78
2021/04/14 14:58:30;;;;;;;8.30;4.65;;;10.00;92.10;;;;;;6753766;88;20177;-80
2021/04/14 15:08:31;;;;;;;9.90;4.70;;;11.10;88.70;;;;;;6760402;88;20184;-80
2021/04/14 15:18:31;;;;;;;9.10;6.47;;;11.50;90.40;;;;;;6763198;88;20593;-79
2021/04/14 15:28:33;;;;;;;12.10;6.82;;;10.20;94.90;;;;;;6765785;88;20287;-79
2021/04/14 15:38:34;;;;;;;8.25;6.03;;;9.40;99.20;;;;;;6759105;88;20184;-80
2021/04/14 15:48:34;;;;;;;9.27;5.50;;;10.00;97.10;;;;;;6771404;87;20208;-81
2021/04/14 15:58:36;;;;;;;8.18;5.85;;;10.20;96.50;;;;;;6770575;87;20477;-79
2021/04/14 16:08:37;;;;;;;9.20;6.20;;;10.10;95.80;;;;;;6727724;87;20223;-79
2021/04/14 16:18:37;;;;;;;9.40;5.95;;;10.40;94.20;;;;;;6691265;89;20626;-79
2021/04/14 16:28:38;;;;;;;10.32;6.00;;;10.30;94.00;;;;;;6688813;89;20703;-79
2021/04/14 16:38:39;;;;;;;10.88;6.47;;;10.50;93.10;;;;;;6663907;88;20225;-79
2021/04/14 16:48:40;;;;;;;9.43;6.35;;;10.10;92.40;;;;;;6659920;89;20196;-78
2021/04/14 16:58:41;;;;;;;8.90;6.03;;;9.70;94.30;;;;;;6661908;89;20201;-77
2021/04/14 17:08:41;;;;;;;8.90;6.17;;;8.80;96.80;;;;;;6707826;87;20196;-77
2021/04/14 17:18:42;;;;;;;10.70;5.90;;;8.50;98.00;;;;;;6753060;88;20553;-79
2021/04/14 17:28:42;;;;;;;10.90;6.53;;;8.20;99.80;;;;;;6745373;87;20204;-77
2021/04/14 17:38:43;;;;;;;9.88;7.05;;;7.80;99.90;;;;;;6754404;88;20214;-77
2021/04/14 17:48:44;;;;;;;10.32;7.37;;;7.50;99.90;;;;;;6758726;88;20180;-77
2021/04/14 17:58:44;;;;;;;10.27;6.53;;;7.50;99.90;;;;;;6749033;88;20250;-77
2021/04/14 18:08:45;;;;;;;9.68;6.20;;;7.50;99.90;;;;;;6745876;88;20205;-78
2021/04/14 18:18:46;;;;;;;11.38;6.65;;;7.50;99.90;;;;;;6753510;88;20184;-77
2021/04/14 18:28:46;;;;;;;8.45;4.70;;;7.40;99.90;;;;;;6742628;88;20214;-78
2021/04/14 18:38:47;;;;;;;7.50;4.35;;;7.10;99.90;;;;;;6766483;88;20208;-78
2021/04/14 18:48:48;;;;;;;7.30;4.55;;;6.60;99.90;;;;;;6774215;88;20256;-76
2021/04/14 18:58:49;;;;;;;7.10;4.12;;;6.40;99.90;;;;;;6772504;88;20225;-78
2021/04/14 19:08:49;;;;;;;8.55;4.40;;;6.10;99.90;;;;;;6754052;88;20243;-79
2021/04/14 19:18:51;;;;;;;7.03;4.47;;;6.00;99.90;;;;;;6758474;87;20207;-76
2021/04/14 19:28:53;;;;;;;6.97;4.57;;;5.90;99.90;;;;;;6757165;88;20529;-79
2021/04/14 19:38:54;;;;;;;8.82;5.32;;;5.80;99.90;;;;;;6758997;88;20224;-76
2021/04/14 19:48:54;;;;;;;7.72;5.20;;;5.50;99.90;;;;;;6750586;88;20529;-77
2021/04/14 19:58:55;;;;;;;8.80;5.83;;;5.10;99.90;;;;;;6740952;88;20193;-77
2021/04/14 20:08:55;;;;;;;5.87;4.15;;;4.90;99.90;;;;;;6747006;88;20518;-77
2021/04/14 20:18:56;;;;;;;5.82;3.60;;;4.70;99.90;;;;;;6748387;88;20261;-77
2021/04/14 20:28:57;;;;;;;7.30;4.13;;;4.60;99.90;;;;;;6757022;88;20301;-78
2021/04/14 20:38:57;;;;;;;6.03;4.37;;;4.40;99.90;;;;;;6755661;88;21033;-78
2021/04/14 20:48:58;;;;;;;7.32;4.50;;;4.40;99.90;;;;;;6742770;88;20730;-77
2021/04/14 20:58:58;;;;;;;5.65;4.05;;;4.30;99.90;;;;;;6753549;88;20329;-77
2021/04/14 21:08:59;;;;;;;7.15;4.40;;;4.20;99.90;;;;;;6739459;88;20233;-77
2021/04/14 21:18:59;;;;;;;8.60;5.35;;;3.90;99.90;;;;;;6742902;88;20224;-78
2021/04/14 21:29:00;;;;;;;11.38;5.90;;;3.70;99.90;;;;;;6742001;88;20196;-77
2021/04/14 21:39:01;;;;;;;8.23;5.72;;;3.40;99.90;;;;;;6741396;88;20594;-78
2021/04/14 21:49:02;;;;;;;9.35;5.97;;;3.40;99.90;;;;;;6741278;88;20195;-78
2021/04/14 21:59:03;;;;;;;8.82;5.80;;;3.50;99.90;;;;;;6738494;88;20522;-78
2021/04/14 22:09:04;;;;;;;11.30;6.68;;;3.50;99.90;;;;;;6741248;88;20278;-77
2021/04/14 22:19:06;;;;;;;10.95;6.15;;;3.50;99.90;;;;;;6755715;88;20188;-77
2021/04/14 22:29:07;;;;;;;11.85;7.03;;;3.40;99.90;;;;;;6753126;88;20686;-78
2021/04/14 22:39:09;;;;;;;11.60;6.40;;;3.10;99.90;;;;;;6759379;88;20613;-78
2021/04/14 22:49:09;;;;;;;10.32;6.95;;;3.00;99.90;;;;;;6761965;88;20208;-78
2021/04/14 22:59:10;;;;;;;15.65;8.27;;;2.80;99.90;;;;;;6769891;88;20619;-78
2021/04/14 23:09:11;;;;;;;16.65;8.43;;;2.90;99.90;;;;;;6775712;88;20219;-76
2021/04/14 23:19:11;;;;;;;12.77;8.27;;;2.60;99.90;;;;;;6761291;88;20291;-78
2021/04/14 23:29:12;;;;;;;12.55;8.50;;;2.40;99.90;;;;;;6760882;88;20745;-76
2021/04/14 23:39:12;;;;;;;15.68;10.20;;;2.40;99.90;;;;;;6756135;88;20176;-77
2021/04/14 23:49:13;;;;;;;16.40;8.82;;;2.20;99.90;;;;;;6756220;88;20200;-77
2021/04/14 23:59:14;;;;;;;18.02;9.85;;;2.20;99.90;;;;;;6759136;88;20200;-77
